sensor_id;sensor_type;location;lat;lon;timestamp;P1;durP1;ratioP1;P2;durP2;ratioP2
6177;SDS011;3122;48.208;11.174;2022-12-29T00:02:21;1.80;;;1.70;;
6177;SDS011;3122;48.208;11.174;2022-12-29T00:07:21;2.40;;;1.70;;
6177;SDS011;3122;48.208;11.174;2022-12-29T00:12:22;1.63;;;1.53;;
6177;SDS011;3122;48.208;11.174;2022-12-29T00:17:22;1.70;;;1.60;;
6177;SDS011;3122;48.208;11.174;2022-12-29T00:22:23;2.50;;;1.80;;
6177;SDS011;3122;48.208;11.174;2022-12-29T00:27:42;2.00;;;1.77;;
6177;SDS011;3122;48.208;11.174;2022-12-29T00:33:08;2.10;;;1.90;;
6177;SDS011;3122;48.208;11.174;2022-12-29T00:38:32;1.80;;;1.70;;
6177;SDS011;3122;48.208;11.174;2022-12-29T00:43:54;1.77;;;1.60;;
6177;SDS011;3122;48.208;11.174;2022-12-29T00:49:08;1.90;;;1.80;;
6177;SDS011;3122;48.208;11.174;2022-12-29T00:54:30;1.50;;;1.40;;
6177;SDS011;3122;48.208;11.174;2022-12-29T00:59:34;1.40;;;1.30;;
6177;SDS011;3122;48.208;11.174;2022-12-29T01:04:35;1.70;;;1.60;;
6177;SDS011;3122;48.208;11.174;2022-12-29T01:09:36;1.53;;;1.40;;
6177;SDS011;3122;48.208;11.174;2022-12-29T01:14:55;1.50;;;1.40;;
6177;SDS011;3122;48.208;11.174;2022-12-29T01:19:56;1.40;;;1.30;;
6177;SDS011;3122;48.208;11.174;2022-12-29T01:24:56;1.43;;;1.33;;
6177;SDS011;3122;48.208;11.174;2022-12-29T01:29:57;1.47;;;1.37;;
6177;SDS011;3122;48.208;11.174;2022-12-29T01:34:57;1.70;;;1.60;;
6177;SDS011;3122;48.208;11.174;2022-12-29T01:39:58;1.47;;;1.30;;
6177;SDS011;3122;48.208;11.174;2022-12-29T01:45:17;1.60;;;1.47;;
6177;SDS011;3122;48.208;11.174;2022-12-29T01:50:20;1.60;;;1.50;;
6177;SDS011;3122;48.208;11.174;2022-12-29T01:55:28;1.80;;;1.70;;
6177;SDS011;3122;48.208;11.174;2022-12-29T02:00:31;4.80;;;3.57;;
6177;SDS011;3122;48.208;11.174;2022-12-29T02:11:11;2.03;;;1.70;;
6177;SDS011;3122;48.208;11.174;2022-12-29T02:16:26;1.80;;;1.50;;
6177;SDS011;3122;48.208;11.174;2022-12-29T02:27:07;1.40;;;1.30;;
6177;SDS011;3122;48.208;11.174;2022-12-29T02:43:05;1.40;;;1.30;;
6177;SDS011;3122;48.208;11.174;2022-12-29T02:48:45;1.20;;;1.00;;
6177;SDS011;3122;48.208;11.174;2022-12-29T02:53:43;1.60;;;1.50;;
6177;SDS011;3122;48.208;11.174;2022-12-29T02:59:02;1.83;;;1.60;;
6177;SDS011;3122;48.208;11.174;2022-12-29T03:15:04;1.20;;;1.10;;
6177;SDS011;3122;48.208;11.174;2022-12-29T03:20:38;1.20;;;1.20;;
6177;SDS011;3122;48.208;11.174;2022-12-29T03:25:46;1.63;;;1.53;;
6177;SDS011;3122;48.208;11.174;2022-12-29T03:30:50;1.40;;;1.30;;
6177;SDS011;3122;48.208;11.174;2022-12-29T03:35:52;1.60;;;1.20;;
6177;SDS011;3122;48.208;11.174;2022-12-29T03:40:58;1.10;;;1.10;;
6177;SDS011;3122;48.208;11.174;2022-12-29T03:46:00;2.20;;;1.30;;
6177;SDS011;3122;48.208;11.174;2022-12-29T03:51:01;1.30;;;1.20;;
6177;SDS011;3122;48.208;11.174;2022-12-29T03:56:01;2.87;;;1.50;;
6177;SDS011;3122;48.208;11.174;2022-12-29T04:01:02;2.10;;;1.27;;
6177;SDS011;3122;48.208;11.174;2022-12-29T04:06:03;2.50;;;1.20;;
6177;SDS011;3122;48.208;11.174;2022-12-29T04:11:04;1.30;;;1.20;;
6177;SDS011;3122;48.208;11.174;2022-12-29T04:16:04;1.20;;;1.10;;
6177;SDS011;3122;48.208;11.174;2022-12-29T04:21:05;1.40;;;1.30;;
6177;SDS011;3122;48.208;11.174;2022-12-29T04:26:06;2.53;;;1.40;;
6177;SDS011;3122;48.208;11.174;2022-12-29T04:31:08;1.13;;;1.10;;
6177;SDS011;3122;48.208;11.174;2022-12-29T04:36:09;1.47;;;1.20;;
6177;SDS011;3122;48.208;11.174;2022-12-29T04:41:10;1.13;;;1.10;;
6177;SDS011;3122;48.208;11.174;2022-12-29T04:46:10;1.93;;;1.10;;
6177;SDS011;3122;48.208;11.174;2022-12-29T04:51:11;1.30;;;1.20;;
6177;SDS011;3122;48.208;11.174;2022-12-29T04:56:11;1.30;;;1.20;;
6177;SDS011;3122;48.208;11.174;2022-12-29T05:01:12;2.00;;;1.53;;
6177;SDS011;3122;48.208;11.174;2022-12-29T05:06:13;1.23;;;1.13;;
6177;SDS011;3122;48.208;11.174;2022-12-29T05:11:13;1.20;;;1.20;;
6177;SDS011;3122;48.208;11.174;2022-12-29T05:16:14;1.10;;;1.10;;
6177;SDS011;3122;48.208;11.174;2022-12-29T05:21:14;1.17;;;1.10;;
6177;SDS011;3122;48.208;11.174;2022-12-29T05:26:15;1.03;;;1.03;;
6177;SDS011;3122;48.208;11.174;2022-12-29T05:31:15;2.73;;;1.50;;
6177;SDS011;3122;48.208;11.174;2022-12-29T05:36:16;1.40;;;1.20;;
6177;SDS011;3122;48.208;11.174;2022-12-29T05:41:17;1.50;;;1.30;;
6177;SDS011;3122;48.208;11.174;2022-12-29T05:46:18;1.37;;;1.27;;
6177;SDS011;3122;48.208;11.174;2022-12-29T05:51:19;1.20;;;1.13;;
6177;SDS011;3122;48.208;11.174;2022-12-29T05:56:19;1.20;;;1.20;;
6177;SDS011;3122;48.208;11.174;2022-12-29T06:01:20;1.90;;;1.40;;
6177;SDS011;3122;48.208;11.174;2022-12-29T06:06:20;1.30;;;1.20;;
6177;SDS011;3122;48.208;11.174;2022-12-29T06:11:21;2.20;;;1.60;;
6177;SDS011;3122;48.208;11.174;2022-12-29T06:16:22;2.63;;;1.60;;
6177;SDS011;3122;48.208;11.174;2022-12-29T06:21:22;1.60;;;1.50;;
6177;SDS011;3122;48.208;11.174;2022-12-29T06:26:23;1.30;;;1.20;;
6177;SDS011;3122;48.208;11.174;2022-12-29T06:31:23;1.30;;;1.20;;
6177;SDS011;3122;48.208;11.174;2022-12-29T06:36:24;1.43;;;1.33;;
6177;SDS011;3122;48.208;11.174;2022-12-29T06:41:24;1.40;;;1.30;;
6177;SDS011;3122;48.208;11.174;2022-12-29T06:46:25;1.67;;;1.30;;
6177;SDS011;3122;48.208;11.174;2022-12-29T06:51:25;2.93;;;1.37;;
6177;SDS011;3122;48.208;11.174;2022-12-29T06:56:26;1.60;;;1.50;;
6177;SDS011;3122;48.208;11.174;2022-12-29T07:01:27;4.23;;;1.40;;
6177;SDS011;3122;48.208;11.174;2022-12-29T07:06:27;1.47;;;1.10;;
6177;SDS011;3122;48.208;11.174;2022-12-29T07:11:28;1.30;;;1.20;;
6177;SDS011;3122;48.208;11.174;2022-12-29T07:16:28;4.00;;;1.83;;
6177;SDS011;3122;48.208;11.174;2022-12-29T07:21:30;1.80;;;1.50;;
6177;SDS011;3122;48.208;11.174;2022-12-29T07:26:30;1.77;;;1.20;;
6177;SDS011;3122;48.208;11.174;2022-12-29T07:31:31;1.50;;;1.40;;
6177;SDS011;3122;48.208;11.174;2022-12-29T07:36:31;1.40;;;1.30;;
6177;SDS011;3122;48.208;11.174;2022-12-29T07:41:32;1.40;;;1.30;;
6177;SDS011;3122;48.208;11.174;2022-12-29T07:46:33;1.83;;;1.73;;
6177;SDS011;3122;48.208;11.174;2022-12-29T07:51:33;3.27;;;2.97;;
6177;SDS011;3122;48.208;11.174;2022-12-29T07:56:34;3.67;;;1.83;;
6177;SDS011;3122;48.208;11.174;2022-12-29T08:01:34;2.03;;;1.70;;
6177;SDS011;3122;48.208;11.174;2022-12-29T08:06:35;2.13;;;1.73;;
6177;SDS011;3122;48.208;11.174;2022-12-29T08:11:37;5.57;;;2.47;;
6177;SDS011;3122;48.208;11.174;2022-12-29T08:16:38;2.67;;;1.50;;
6177;SDS011;3122;48.208;11.174;2022-12-29T08:21:39;8.17;;;4.67;;
6177;SDS011;3122;48.208;11.174;2022-12-29T08:26:39;2.03;;;1.83;;
6177;SDS011;3122;48.208;11.174;2022-12-29T08:31:40;4.40;;;2.30;;
6177;SDS011;3122;48.208;11.174;2022-12-29T08:36:40;6.77;;;3.87;;
6177;SDS011;3122;48.208;11.174;2022-12-29T08:41:41;4.60;;;1.77;;
6177;SDS011;3122;48.208;11.174;2022-12-29T08:46:41;2.00;;;1.73;;
6177;SDS011;3122;48.208;11.174;2022-12-29T08:51:42;7.10;;;1.77;;
6177;SDS011;3122;48.208;11.174;2022-12-29T08:56:43;1.80;;;1.67;;
6177;SDS011;3122;48.208;11.174;2022-12-29T09:01:43;2.17;;;1.77;;
6177;SDS011;3122;48.208;11.174;2022-12-29T09:06:44;2.37;;;1.70;;
6177;SDS011;3122;48.208;11.174;2022-12-29T09:11:45;1.73;;;1.63;;
6177;SDS011;3122;48.208;11.174;2022-12-29T09:16:45;2.70;;;1.60;;
6177;SDS011;3122;48.208;11.174;2022-12-29T09:22:05;7.80;;;1.83;;
6177;SDS011;3122;48.208;11.174;2022-12-29T09:27:05;1.93;;;1.77;;
6177;SDS011;3122;48.208;11.174;2022-12-29T09:32:06;1.93;;;1.73;;
6177;SDS011;3122;48.208;11.174;2022-12-29T09:37:07;8.50;;;2.50;;
6177;SDS011;3122;48.208;11.174;2022-12-29T09:47:13;4.20;;;1.53;;
6177;SDS011;3122;48.208;11.174;2022-12-29T09:52:18;1.70;;;1.60;;
6177;SDS011;3122;48.208;11.174;2022-12-29T09:57:31;1.60;;;1.30;;
6177;SDS011;3122;48.208;11.174;2022-12-29T10:03:21;1.70;;;1.60;;
6177;SDS011;3122;48.208;11.174;2022-12-29T10:13:40;2.43;;;1.60;;
6177;SDS011;3122;48.208;11.174;2022-12-29T10:19:16;4.03;;;2.50;;
6177;SDS011;3122;48.208;11.174;2022-12-29T10:24:24;4.10;;;3.00;;
6177;SDS011;3122;48.208;11.174;2022-12-29T10:29:29;9.77;;;4.70;;
6177;SDS011;3122;48.208;11.174;2022-12-29T10:34:37;11.90;;;6.00;;
6177;SDS011;3122;48.208;11.174;2022-12-29T10:39:45;5.30;;;4.00;;
6177;SDS011;3122;48.208;11.174;2022-12-29T10:44:50;5.30;;;2.70;;
6177;SDS011;3122;48.208;11.174;2022-12-29T10:49:51;1.70;;;1.60;;
6177;SDS011;3122;48.208;11.174;2022-12-29T11:00:23;1.70;;;1.60;;
6177;SDS011;3122;48.208;11.174;2022-12-29T11:15:43;1.90;;;1.80;;
6177;SDS011;3122;48.208;11.174;2022-12-29T11:20:50;4.20;;;2.00;;
6177;SDS011;3122;48.208;11.174;2022-12-29T11:31:21;1.90;;;1.80;;
6177;SDS011;3122;48.208;11.174;2022-12-29T11:36:22;1.83;;;1.73;;
6177;SDS011;3122;48.208;11.174;2022-12-29T11:41:25;2.00;;;1.80;;
6177;SDS011;3122;48.208;11.174;2022-12-29T11:46:28;2.63;;;2.40;;
6177;SDS011;3122;48.208;11.174;2022-12-29T11:51:37;1.33;;;1.30;;
6177;SDS011;3122;48.208;11.174;2022-12-29T11:56:43;2.10;;;1.90;;
6177;SDS011;3122;48.208;11.174;2022-12-29T12:01:44;1.80;;;1.70;;
6177;SDS011;3122;48.208;11.174;2022-12-29T12:06:56;1.50;;;1.40;;
6177;SDS011;3122;48.208;11.174;2022-12-29T12:12:23;2.23;;;1.40;;
6177;SDS011;3122;48.208;11.174;2022-12-29T12:17:38;1.50;;;1.40;;
6177;SDS011;3122;48.208;11.174;2022-12-29T12:22:50;1.53;;;1.43;;
6177;SDS011;3122;48.208;11.174;2022-12-29T12:33:31;1.43;;;1.33;;
6177;SDS011;3122;48.208;11.174;2022-12-29T12:43:53;3.73;;;1.60;;
6177;SDS011;3122;48.208;11.174;2022-12-29T13:15:50;2.57;;;2.37;;
6177;SDS011;3122;48.208;11.174;2022-12-29T13:21:12;5.83;;;4.47;;
6177;SDS011;3122;48.208;11.174;2022-12-29T13:31:52;3.90;;;2.70;;
6177;SDS011;3122;48.208;11.174;2022-12-29T13:37:17;2.93;;;2.73;;
6177;SDS011;3122;48.208;11.174;2022-12-29T13:42:20;2.60;;;1.93;;
6177;SDS011;3122;48.208;11.174;2022-12-29T14:03:54;2.23;;;1.40;;
6177;SDS011;3122;48.208;11.174;2022-12-29T14:14:18;1.50;;;1.40;;
6177;SDS011;3122;48.208;11.174;2022-12-29T14:19:29;1.60;;;1.50;;
6177;SDS011;3122;48.208;11.174;2022-12-29T14:29:41;2.73;;;1.80;;
6177;SDS011;3122;48.208;11.174;2022-12-29T14:34:43;2.90;;;2.70;;
6177;SDS011;3122;48.208;11.174;2022-12-29T14:39:44;3.50;;;1.60;;
6177;SDS011;3122;48.208;11.174;2022-12-29T14:44:48;2.13;;;1.80;;
6177;SDS011;3122;48.208;11.174;2022-12-29T14:49:51;2.13;;;1.90;;
6177;SDS011;3122;48.208;11.174;2022-12-29T14:54:54;3.13;;;2.80;;
6177;SDS011;3122;48.208;11.174;2022-12-29T15:00:03;2.77;;;2.57;;
6177;SDS011;3122;48.208;11.174;2022-12-29T15:11:03;4.00;;;3.60;;
6177;SDS011;3122;48.208;11.174;2022-12-29T15:16:30;2.20;;;2.00;;
6177;SDS011;3122;48.208;11.174;2022-12-29T15:21:33;2.73;;;1.70;;
6177;SDS011;3122;48.208;11.174;2022-12-29T15:26:36;2.50;;;1.90;;
6177;SDS011;3122;48.208;11.174;2022-12-29T15:31:45;3.83;;;3.53;;
6177;SDS011;3122;48.208;11.174;2022-12-29T15:36:49;4.00;;;2.40;;
6177;SDS011;3122;48.208;11.174;2022-12-29T15:41:53;2.63;;;2.07;;
6177;SDS011;3122;48.208;11.174;2022-12-29T15:47:21;3.00;;;2.70;;
6177;SDS011;3122;48.208;11.174;2022-12-29T15:52:22;5.70;;;2.90;;
6177;SDS011;3122;48.208;11.174;2022-12-29T15:57:25;12.80;;;7.10;;
6177;SDS011;3122;48.208;11.174;2022-12-29T16:02:29;6.57;;;5.20;;
6177;SDS011;3122;48.208;11.174;2022-12-29T16:07:31;5.80;;;3.70;;
6177;SDS011;3122;48.208;11.174;2022-12-29T16:12:36;3.93;;;3.10;;
6177;SDS011;3122;48.208;11.174;2022-12-29T16:17:56;3.30;;;3.00;;
6177;SDS011;3122;48.208;11.174;2022-12-29T16:22:57;4.83;;;3.30;;
6177;SDS011;3122;48.208;11.174;2022-12-29T16:28:00;3.23;;;2.93;;
6177;SDS011;3122;48.208;11.174;2022-12-29T16:33:03;6.23;;;4.60;;
6177;SDS011;3122;48.208;11.174;2022-12-29T16:38:21;2.63;;;2.40;;
6177;SDS011;3122;48.208;11.174;2022-12-29T16:43:30;2.27;;;2.00;;
6177;SDS011;3122;48.208;11.174;2022-12-29T16:48:36;2.30;;;2.10;;
6177;SDS011;3122;48.208;11.174;2022-12-29T16:53:48;4.20;;;3.60;;
6177;SDS011;3122;48.208;11.174;2022-12-29T16:58:58;2.00;;;1.90;;
6177;SDS011;3122;48.208;11.174;2022-12-29T17:04:06;2.70;;;1.67;;
6177;SDS011;3122;48.208;11.174;2022-12-29T17:09:20;1.90;;;1.80;;
6177;SDS011;3122;48.208;11.174;2022-12-29T17:19:46;3.47;;;2.60;;
6177;SDS011;3122;48.208;11.174;2022-12-29T17:24:49;2.80;;;2.10;;
6177;SDS011;3122;48.208;11.174;2022-12-29T17:30:01;14.57;;;7.70;;
6177;SDS011;3122;48.208;11.174;2022-12-29T17:35:05;8.70;;;6.80;;
6177;SDS011;3122;48.208;11.174;2022-12-29T17:40:06;4.63;;;4.10;;
6177;SDS011;3122;48.208;11.174;2022-12-29T17:45:16;2.43;;;2.27;;
6177;SDS011;3122;48.208;11.174;2022-12-29T17:50:22;3.23;;;2.00;;
6177;SDS011;3122;48.208;11.174;2022-12-29T17:55:24;4.80;;;3.13;;
6177;SDS011;3122;48.208;11.174;2022-12-29T18:00:28;2.60;;;2.40;;
6177;SDS011;3122;48.208;11.174;2022-12-29T18:05:30;3.80;;;2.70;;
6177;SDS011;3122;48.208;11.174;2022-12-29T18:10:30;4.07;;;2.90;;
6177;SDS011;3122;48.208;11.174;2022-12-29T18:15:32;5.10;;;3.30;;
6177;SDS011;3122;48.208;11.174;2022-12-29T18:20:35;4.10;;;2.43;;
6177;SDS011;3122;48.208;11.174;2022-12-29T18:25:39;3.70;;;1.67;;
6177;SDS011;3122;48.208;11.174;2022-12-29T18:30:48;4.57;;;1.83;;
6177;SDS011;3122;48.208;11.174;2022-12-29T18:40:51;2.40;;;2.20;;
6177;SDS011;3122;48.208;11.174;2022-12-29T18:45:53;2.70;;;2.07;;
6177;SDS011;3122;48.208;11.174;2022-12-29T18:50:53;2.83;;;2.63;;
6177;SDS011;3122;48.208;11.174;2022-12-29T18:55:54;2.70;;;2.10;;
6177;SDS011;3122;48.208;11.174;2022-12-29T19:00:56;2.27;;;2.07;;
6177;SDS011;3122;48.208;11.174;2022-12-29T19:05:56;2.47;;;1.83;;
6177;SDS011;3122;48.208;11.174;2022-12-29T19:10:58;2.80;;;2.60;;
6177;SDS011;3122;48.208;11.174;2022-12-29T19:15:58;2.80;;;1.93;;
6177;SDS011;3122;48.208;11.174;2022-12-29T19:20:59;1.90;;;1.70;;
6177;SDS011;3122;48.208;11.174;2022-12-29T19:26:00;2.00;;;1.80;;
6177;SDS011;3122;48.208;11.174;2022-12-29T19:31:01;1.60;;;1.50;;
6177;SDS011;3122;48.208;11.174;2022-12-29T19:36:02;2.00;;;1.90;;
6177;SDS011;3122;48.208;11.174;2022-12-29T19:41:05;1.50;;;1.40;;
6177;SDS011;3122;48.208;11.174;2022-12-29T19:46:07;1.80;;;1.70;;
6177;SDS011;3122;48.208;11.174;2022-12-29T19:51:10;1.90;;;1.80;;
6177;SDS011;3122;48.208;11.174;2022-12-29T19:56:14;4.27;;;3.03;;
6177;SDS011;3122;48.208;11.174;2022-12-29T20:01:17;1.80;;;1.70;;
6177;SDS011;3122;48.208;11.174;2022-12-29T20:06:20;1.70;;;1.60;;
6177;SDS011;3122;48.208;11.174;2022-12-29T20:11:20;2.30;;;2.10;;
6177;SDS011;3122;48.208;11.174;2022-12-29T20:16:21;2.13;;;2.00;;
6177;SDS011;3122;48.208;11.174;2022-12-29T20:21:22;1.70;;;1.60;;
6177;SDS011;3122;48.208;11.174;2022-12-29T20:26:25;1.73;;;1.63;;
6177;SDS011;3122;48.208;11.174;2022-12-29T20:31:28;1.80;;;1.67;;
6177;SDS011;3122;48.208;11.174;2022-12-29T20:36:35;2.53;;;1.90;;
6177;SDS011;3122;48.208;11.174;2022-12-29T20:41:39;2.57;;;1.70;;
6177;SDS011;3122;48.208;11.174;2022-12-29T20:46:40;2.17;;;2.07;;
6177;SDS011;3122;48.208;11.174;2022-12-29T20:51:40;2.23;;;2.03;;
6177;SDS011;3122;48.208;11.174;2022-12-29T20:56:43;1.70;;;1.60;;
6177;SDS011;3122;48.208;11.174;2022-12-29T21:01:45;1.70;;;1.60;;
6177;SDS011;3122;48.208;11.174;2022-12-29T21:06:45;2.27;;;1.50;;
6177;SDS011;3122;48.208;11.174;2022-12-29T21:11:46;1.60;;;1.50;;
6177;SDS011;3122;48.208;11.174;2022-12-29T21:16:47;1.70;;;1.60;;
6177;SDS011;3122;48.208;11.174;2022-12-29T21:21:48;1.60;;;1.50;;
6177;SDS011;3122;48.208;11.174;2022-12-29T21:26:50;1.83;;;1.70;;
6177;SDS011;3122;48.208;11.174;2022-12-29T21:31:50;2.60;;;1.47;;
6177;SDS011;3122;48.208;11.174;2022-12-29T21:36:51;2.70;;;2.50;;
6177;SDS011;3122;48.208;11.174;2022-12-29T21:41:51;1.33;;;1.23;;
6177;SDS011;3122;48.208;11.174;2022-12-29T21:46:52;1.40;;;1.30;;
6177;SDS011;3122;48.208;11.174;2022-12-29T21:51:53;1.50;;;1.40;;
6177;SDS011;3122;48.208;11.174;2022-12-29T21:56:53;4.10;;;1.70;;
6177;SDS011;3122;48.208;11.174;2022-12-29T22:01:54;1.77;;;1.60;;
6177;SDS011;3122;48.208;11.174;2022-12-29T22:07:14;2.37;;;2.20;;
6177;SDS011;3122;48.208;11.174;2022-12-29T22:12:33;10.47;;;6.13;;
6177;SDS011;3122;48.208;11.174;2022-12-29T22:17:53;5.90;;;4.40;;
6177;SDS011;3122;48.208;11.174;2022-12-29T22:22:55;6.80;;;4.80;;
6177;SDS011;3122;48.208;11.174;2022-12-29T22:27:56;5.63;;;4.27;;
6177;SDS011;3122;48.208;11.174;2022-12-29T22:32:58;3.80;;;3.50;;
6177;SDS011;3122;48.208;11.174;2022-12-29T22:38:00;3.40;;;2.20;;
6177;SDS011;3122;48.208;11.174;2022-12-29T22:43:01;2.07;;;1.97;;
6177;SDS011;3122;48.208;11.174;2022-12-29T22:48:01;4.80;;;2.20;;
6177;SDS011;3122;48.208;11.174;2022-12-29T22:53:04;2.10;;;1.90;;
6177;SDS011;3122;48.208;11.174;2022-12-29T22:58:04;2.80;;;1.97;;
6177;SDS011;3122;48.208;11.174;2022-12-29T23:03:05;2.33;;;2.20;;
6177;SDS011;3122;48.208;11.174;2022-12-29T23:08:05;4.43;;;1.73;;
6177;SDS011;3122;48.208;11.174;2022-12-29T23:13:06;1.93;;;1.83;;
6177;SDS011;3122;48.208;11.174;2022-12-29T23:18:06;2.20;;;1.70;;
6177;SDS011;3122;48.208;11.174;2022-12-29T23:23:07;2.23;;;1.70;;
6177;SDS011;3122;48.208;11.174;2022-12-29T23:28:07;4.03;;;2.27;;
6177;SDS011;3122;48.208;11.174;2022-12-29T23:33:08;2.30;;;2.20;;
6177;SDS011;3122;48.208;11.174;2022-12-29T23:38:09;1.93;;;1.83;;
6177;SDS011;3122;48.208;11.174;2022-12-29T23:43:09;2.50;;;1.70;;
6177;SDS011;3122;48.208;11.174;2022-12-29T23:48:10;1.80;;;1.70;;
6177;SDS011;3122;48.208;11.174;2022-12-29T23:53:10;2.70;;;1.67;;
6177;SDS011;3122;48.208;11.174;2022-12-29T23:58:11;1.60;;;1.50;;
